sensor_id;sensor_type;location;lat;lon;timestamp;P1;durP1;ratioP1;P2;durP2;ratioP2
35372;SDS011;21476;51.652;7.852;2022-12-07T00:01:15;48.05;;;33.00;;
35372;SDS011;21476;51.652;7.852;2022-12-07T00:03:45;44.88;;;31.77;;
35372;SDS011;21476;51.652;7.852;2022-12-07T00:06:12;49.95;;;31.70;;
35372;SDS011;21476;51.652;7.852;2022-12-07T00:08:39;39.95;;;30.65;;
35372;SDS011;21476;51.652;7.852;2022-12-07T00:11:06;45.13;;;30.17;;
35372;SDS011;21476;51.652;7.852;2022-12-07T00:13:33;39.28;;;28.70;;
35372;SDS011;21476;51.652;7.852;2022-12-07T00:16:03;42.03;;;28.27;;
35372;SDS011;21476;51.652;7.852;2022-12-07T00:18:31;40.72;;;27.13;;
35372;SDS011;21476;51.652;7.852;2022-12-07T00:21:00;37.05;;;26.95;;
35372;SDS011;21476;51.652;7.852;2022-12-07T00:23:28;36.22;;;25.27;;
35372;SDS011;21476;51.652;7.852;2022-12-07T00:25:54;34.80;;;25.75;;
35372;SDS011;21476;51.652;7.852;2022-12-07T00:28:19;32.83;;;25.23;;
35372;SDS011;21476;51.652;7.852;2022-12-07T00:30:45;36.15;;;24.48;;
35372;SDS011;21476;51.652;7.852;2022-12-07T00:33:11;32.47;;;25.17;;
35372;SDS011;21476;51.652;7.852;2022-12-07T00:38:14;38.15;;;25.20;;
35372;SDS011;21476;51.652;7.852;2022-12-07T00:40:40;34.45;;;24.92;;
35372;SDS011;21476;51.652;7.852;2022-12-07T00:43:05;30.98;;;22.38;;
35372;SDS011;21476;51.652;7.852;2022-12-07T00:45:31;30.73;;;22.88;;
35372;SDS011;21476;51.652;7.852;2022-12-07T00:47:57;32.75;;;22.73;;
35372;SDS011;21476;51.652;7.852;2022-12-07T00:50:22;29.23;;;21.60;;
35372;SDS011;21476;51.652;7.852;2022-12-07T00:52:48;30.25;;;21.40;;
35372;SDS011;21476;51.652;7.852;2022-12-07T00:55:14;31.67;;;21.98;;
35372;SDS011;21476;51.652;7.852;2022-12-07T00:57:39;29.40;;;21.17;;
35372;SDS011;21476;51.652;7.852;2022-12-07T01:00:05;31.48;;;22.05;;
35372;SDS011;21476;51.652;7.852;2022-12-07T01:02:31;28.75;;;20.48;;
35372;SDS011;21476;51.652;7.852;2022-12-07T01:04:57;28.35;;;21.00;;
35372;SDS011;21476;51.652;7.852;2022-12-07T01:07:22;29.10;;;20.20;;
35372;SDS011;21476;51.652;7.852;2022-12-07T01:09:48;29.63;;;21.67;;
35372;SDS011;21476;51.652;7.852;2022-12-07T01:12:14;30.27;;;21.27;;
35372;SDS011;21476;51.652;7.852;2022-12-07T01:14:41;29.40;;;21.00;;
35372;SDS011;21476;51.652;7.852;2022-12-07T01:17:06;30.77;;;22.15;;
35372;SDS011;21476;51.652;7.852;2022-12-07T01:19:32;32.40;;;22.70;;
35372;SDS011;21476;51.652;7.852;2022-12-07T01:21:58;31.95;;;22.00;;
35372;SDS011;21476;51.652;7.852;2022-12-07T01:24:23;34.20;;;23.73;;
35372;SDS011;21476;51.652;7.852;2022-12-07T01:26:49;35.38;;;22.48;;
35372;SDS011;21476;51.652;7.852;2022-12-07T01:29:15;32.33;;;22.40;;
35372;SDS011;21476;51.652;7.852;2022-12-07T01:31:40;33.60;;;22.70;;
35372;SDS011;21476;51.652;7.852;2022-12-07T01:34:06;35.97;;;21.88;;
35372;SDS011;21476;51.652;7.852;2022-12-07T01:36:35;30.73;;;22.00;;
35372;SDS011;21476;51.652;7.852;2022-12-07T01:39:03;29.38;;;21.98;;
35372;SDS011;21476;51.652;7.852;2022-12-07T01:41:31;30.27;;;22.55;;
35372;SDS011;21476;51.652;7.852;2022-12-07T01:49:19;34.05;;;22.55;;
35372;SDS011;21476;51.652;7.852;2022-12-07T01:51:46;32.13;;;21.85;;
35372;SDS011;21476;51.652;7.852;2022-12-07T01:54:13;30.73;;;21.63;;
35372;SDS011;21476;51.652;7.852;2022-12-07T01:56:41;32.55;;;23.42;;
35372;SDS011;21476;51.652;7.852;2022-12-07T01:59:13;31.70;;;21.88;;
35372;SDS011;21476;51.652;7.852;2022-12-07T02:01:41;30.10;;;20.17;;
35372;SDS011;21476;51.652;7.852;2022-12-07T02:04:06;34.90;;;22.13;;
35372;SDS011;21476;51.652;7.852;2022-12-07T02:06:32;32.05;;;21.20;;
35372;SDS011;21476;51.652;7.852;2022-12-07T02:08:59;32.85;;;21.40;;
35372;SDS011;21476;51.652;7.852;2022-12-07T02:11:25;32.03;;;20.90;;
35372;SDS011;21476;51.652;7.852;2022-12-07T02:13:50;30.08;;;20.27;;
35372;SDS011;21476;51.652;7.852;2022-12-07T02:16:28;28.08;;;20.70;;
35372;SDS011;21476;51.652;7.852;2022-12-07T02:27:47;26.10;;;18.63;;
35372;SDS011;21476;51.652;7.852;2022-12-07T02:30:22;27.77;;;19.55;;
35372;SDS011;21476;51.652;7.852;2022-12-07T02:35:28;36.33;;;20.52;;
35372;SDS011;21476;51.652;7.852;2022-12-07T02:40:52;33.70;;;20.92;;
35372;SDS011;21476;51.652;7.852;2022-12-07T02:43:24;27.92;;;20.23;;
35372;SDS011;21476;51.652;7.852;2022-12-07T02:45:53;32.72;;;21.20;;
35372;SDS011;21476;51.652;7.852;2022-12-07T02:48:23;29.58;;;19.70;;
35372;SDS011;21476;51.652;7.852;2022-12-07T02:50:51;30.40;;;20.67;;
35372;SDS011;21476;51.652;7.852;2022-12-07T02:56:11;27.23;;;19.50;;
35372;SDS011;21476;51.652;7.852;2022-12-07T03:07:43;26.80;;;19.65;;
35372;SDS011;21476;51.652;7.852;2022-12-07T03:10:31;26.27;;;18.70;;
35372;SDS011;21476;51.652;7.852;2022-12-07T03:13:36;31.63;;;21.23;;
35372;SDS011;21476;51.652;7.852;2022-12-07T03:16:24;30.75;;;21.00;;
35372;SDS011;21476;51.652;7.852;2022-12-07T03:18:56;35.42;;;19.95;;
35372;SDS011;21476;51.652;7.852;2022-12-07T03:21:31;30.77;;;19.47;;
35372;SDS011;21476;51.652;7.852;2022-12-07T03:24:02;30.13;;;20.77;;
35372;SDS011;21476;51.652;7.852;2022-12-07T03:26:32;29.00;;;20.33;;
35372;SDS011;21476;51.652;7.852;2022-12-07T03:29:02;30.67;;;20.52;;
35372;SDS011;21476;51.652;7.852;2022-12-07T03:31:38;31.73;;;19.00;;
35372;SDS011;21476;51.652;7.852;2022-12-07T03:34:16;28.10;;;20.40;;
35372;SDS011;21476;51.652;7.852;2022-12-07T03:36:53;28.85;;;19.17;;
35372;SDS011;21476;51.652;7.852;2022-12-07T03:42:01;31.52;;;19.65;;
35372;SDS011;21476;51.652;7.852;2022-12-07T03:44:30;27.00;;;19.67;;
35372;SDS011;21476;51.652;7.852;2022-12-07T03:47:07;30.50;;;20.27;;
35372;SDS011;21476;51.652;7.852;2022-12-07T03:57:42;29.67;;;19.90;;
35372;SDS011;21476;51.652;7.852;2022-12-07T04:00:11;27.10;;;19.77;;
35372;SDS011;21476;51.652;7.852;2022-12-07T04:02:38;34.45;;;20.73;;
35372;SDS011;21476;51.652;7.852;2022-12-07T04:05:04;32.60;;;23.10;;
35372;SDS011;21476;51.652;7.852;2022-12-07T04:07:30;30.08;;;21.30;;
35372;SDS011;21476;51.652;7.852;2022-12-07T04:09:56;38.00;;;21.55;;
35372;SDS011;21476;51.652;7.852;2022-12-07T04:12:22;32.08;;;22.25;;
35372;SDS011;21476;51.652;7.852;2022-12-07T04:14:48;37.13;;;22.48;;
35372;SDS011;21476;51.652;7.852;2022-12-07T04:17:14;29.08;;;20.35;;
35372;SDS011;21476;51.652;7.852;2022-12-07T04:19:40;34.92;;;21.67;;
35372;SDS011;21476;51.652;7.852;2022-12-07T04:22:05;30.52;;;21.00;;
35372;SDS011;21476;51.652;7.852;2022-12-07T04:24:32;30.45;;;20.92;;
35372;SDS011;21476;51.652;7.852;2022-12-07T04:26:58;32.10;;;21.48;;
35372;SDS011;21476;51.652;7.852;2022-12-07T04:29:24;30.88;;;21.17;;
35372;SDS011;21476;51.652;7.852;2022-12-07T04:31:50;39.22;;;22.50;;
35372;SDS011;21476;51.652;7.852;2022-12-07T04:34:16;36.60;;;22.77;;
35372;SDS011;21476;51.652;7.852;2022-12-07T04:36:42;37.17;;;23.45;;
35372;SDS011;21476;51.652;7.852;2022-12-07T04:39:13;33.47;;;22.30;;
35372;SDS011;21476;51.652;7.852;2022-12-07T04:41:44;35.03;;;21.83;;
35372;SDS011;21476;51.652;7.852;2022-12-07T04:44:09;38.22;;;22.42;;
35372;SDS011;21476;51.652;7.852;2022-12-07T04:46:39;35.28;;;22.15;;
35372;SDS011;21476;51.652;7.852;2022-12-07T04:49:04;32.65;;;21.95;;
35372;SDS011;21476;51.652;7.852;2022-12-07T04:51:30;32.75;;;20.75;;
35372;SDS011;21476;51.652;7.852;2022-12-07T04:53:56;31.52;;;20.90;;
35372;SDS011;21476;51.652;7.852;2022-12-07T04:56:22;33.78;;;21.88;;
35372;SDS011;21476;51.652;7.852;2022-12-07T04:58:48;33.05;;;23.02;;
35372;SDS011;21476;51.652;7.852;2022-12-07T05:01:16;33.58;;;22.55;;
35372;SDS011;21476;51.652;7.852;2022-12-07T05:03:43;37.10;;;21.88;;
35372;SDS011;21476;51.652;7.852;2022-12-07T05:06:09;31.52;;;20.50;;
35372;SDS011;21476;51.652;7.852;2022-12-07T05:08:35;30.90;;;20.63;;
35372;SDS011;21476;51.652;7.852;2022-12-07T05:11:02;36.63;;;20.52;;
35372;SDS011;21476;51.652;7.852;2022-12-07T05:13:28;34.50;;;20.88;;
35372;SDS011;21476;51.652;7.852;2022-12-07T05:15:54;33.72;;;19.95;;
35372;SDS011;21476;51.652;7.852;2022-12-07T05:18:19;30.33;;;19.58;;
35372;SDS011;21476;51.652;7.852;2022-12-07T05:20:45;36.60;;;21.67;;
35372;SDS011;21476;51.652;7.852;2022-12-07T05:23:11;34.38;;;20.73;;
35372;SDS011;21476;51.652;7.852;2022-12-07T05:25:37;27.38;;;19.40;;
35372;SDS011;21476;51.652;7.852;2022-12-07T05:28:03;29.45;;;19.05;;
35372;SDS011;21476;51.652;7.852;2022-12-07T05:30:29;31.85;;;19.85;;
35372;SDS011;21476;51.652;7.852;2022-12-07T05:32:56;32.75;;;20.17;;
35372;SDS011;21476;51.652;7.852;2022-12-07T05:35:21;35.40;;;19.70;;
35372;SDS011;21476;51.652;7.852;2022-12-07T05:37:47;30.33;;;21.13;;
35372;SDS011;21476;51.652;7.852;2022-12-07T05:40:13;35.22;;;21.20;;
35372;SDS011;21476;51.652;7.852;2022-12-07T05:42:40;31.88;;;20.42;;
35372;SDS011;21476;51.652;7.852;2022-12-07T05:45:06;35.63;;;19.85;;
35372;SDS011;21476;51.652;7.852;2022-12-07T05:47:32;30.55;;;20.20;;
35372;SDS011;21476;51.652;7.852;2022-12-07T05:49:58;31.80;;;19.17;;
35372;SDS011;21476;51.652;7.852;2022-12-07T05:52:24;29.17;;;19.08;;
35372;SDS011;21476;51.652;7.852;2022-12-07T05:54:49;37.80;;;19.88;;
35372;SDS011;21476;51.652;7.852;2022-12-07T05:57:15;26.58;;;18.15;;
35372;SDS011;21476;51.652;7.852;2022-12-07T05:59:41;28.95;;;18.33;;
35372;SDS011;21476;51.652;7.852;2022-12-07T06:02:07;29.08;;;17.98;;
35372;SDS011;21476;51.652;7.852;2022-12-07T06:04:39;29.60;;;18.13;;
35372;SDS011;21476;51.652;7.852;2022-12-07T06:07:07;31.73;;;18.20;;
35372;SDS011;21476;51.652;7.852;2022-12-07T06:09:33;29.13;;;18.48;;
35372;SDS011;21476;51.652;7.852;2022-12-07T06:11:59;28.23;;;17.02;;
35372;SDS011;21476;51.652;7.852;2022-12-07T06:14:44;30.83;;;18.55;;
35372;SDS011;21476;51.652;7.852;2022-12-07T06:17:11;27.40;;;18.00;;
35372;SDS011;21476;51.652;7.852;2022-12-07T06:19:37;29.90;;;17.55;;
35372;SDS011;21476;51.652;7.852;2022-12-07T06:22:03;24.48;;;16.77;;
35372;SDS011;21476;51.652;7.852;2022-12-07T06:24:30;26.25;;;17.50;;
35372;SDS011;21476;51.652;7.852;2022-12-07T06:26:56;30.83;;;15.68;;
35372;SDS011;21476;51.652;7.852;2022-12-07T06:29:23;24.52;;;16.23;;
35372;SDS011;21476;51.652;7.852;2022-12-07T06:31:48;27.95;;;15.77;;
35372;SDS011;21476;51.652;7.852;2022-12-07T06:34:18;28.20;;;15.90;;
35372;SDS011;21476;51.652;7.852;2022-12-07T06:36:45;28.02;;;16.73;;
35372;SDS011;21476;51.652;7.852;2022-12-07T06:39:15;28.95;;;16.75;;
35372;SDS011;21476;51.652;7.852;2022-12-07T06:41:42;26.60;;;16.00;;
35372;SDS011;21476;51.652;7.852;2022-12-07T06:44:08;38.22;;;17.27;;
35372;SDS011;21476;51.652;7.852;2022-12-07T06:46:33;25.55;;;17.02;;
35372;SDS011;21476;51.652;7.852;2022-12-07T06:49:00;21.90;;;15.48;;
35372;SDS011;21476;51.652;7.852;2022-12-07T06:51:26;26.67;;;15.82;;
35372;SDS011;21476;51.652;7.852;2022-12-07T06:53:52;30.15;;;16.30;;
35372;SDS011;21476;51.652;7.852;2022-12-07T06:56:17;26.77;;;16.02;;
35372;SDS011;21476;51.652;7.852;2022-12-07T06:58:43;30.90;;;17.20;;
35372;SDS011;21476;51.652;7.852;2022-12-07T07:01:12;27.17;;;16.35;;
35372;SDS011;21476;51.652;7.852;2022-12-07T07:03:39;25.92;;;15.52;;
35372;SDS011;21476;51.652;7.852;2022-12-07T07:06:06;24.67;;;16.08;;
35372;SDS011;21476;51.652;7.852;2022-12-07T07:08:35;29.23;;;15.57;;
35372;SDS011;21476;51.652;7.852;2022-12-07T07:11:02;25.08;;;15.55;;
35372;SDS011;21476;51.652;7.852;2022-12-07T07:13:27;26.15;;;14.88;;
35372;SDS011;21476;51.652;7.852;2022-12-07T07:15:53;24.20;;;14.65;;
35372;SDS011;21476;51.652;7.852;2022-12-07T07:18:19;24.13;;;15.15;;
35372;SDS011;21476;51.652;7.852;2022-12-07T07:20:45;23.10;;;14.13;;
35372;SDS011;21476;51.652;7.852;2022-12-07T07:23:10;27.33;;;14.80;;
35372;SDS011;21476;51.652;7.852;2022-12-07T07:25:36;25.98;;;13.98;;
35372;SDS011;21476;51.652;7.852;2022-12-07T07:28:02;32.63;;;15.70;;
35372;SDS011;21476;51.652;7.852;2022-12-07T07:30:28;27.73;;;16.60;;
35372;SDS011;21476;51.652;7.852;2022-12-07T07:32:57;33.22;;;20.02;;
35372;SDS011;21476;51.652;7.852;2022-12-07T07:35:24;29.98;;;17.75;;
35372;SDS011;21476;51.652;7.852;2022-12-07T07:37:51;31.67;;;18.63;;
35372;SDS011;21476;51.652;7.852;2022-12-07T07:40:16;32.00;;;19.25;;
35372;SDS011;21476;51.652;7.852;2022-12-07T07:42:42;30.08;;;18.58;;
35372;SDS011;21476;51.652;7.852;2022-12-07T07:45:08;32.28;;;22.55;;
35372;SDS011;21476;51.652;7.852;2022-12-07T07:47:34;33.00;;;21.50;;
35372;SDS011;21476;51.652;7.852;2022-12-07T07:49:59;40.05;;;23.63;;
35372;SDS011;21476;51.652;7.852;2022-12-07T07:52:25;37.72;;;22.65;;
35372;SDS011;21476;51.652;7.852;2022-12-07T07:54:51;34.95;;;22.75;;
35372;SDS011;21476;51.652;7.852;2022-12-07T07:57:17;36.88;;;21.13;;
35372;SDS011;21476;51.652;7.852;2022-12-07T07:59:43;45.75;;;24.20;;
35372;SDS011;21476;51.652;7.852;2022-12-07T08:02:15;39.42;;;23.25;;
35372;SDS011;21476;51.652;7.852;2022-12-07T08:04:42;32.15;;;20.13;;
35372;SDS011;21476;51.652;7.852;2022-12-07T08:07:08;35.90;;;21.85;;
35372;SDS011;21476;51.652;7.852;2022-12-07T08:09:33;32.42;;;19.48;;
35372;SDS011;21476;51.652;7.852;2022-12-07T08:11:59;32.55;;;18.80;;
35372;SDS011;21476;51.652;7.852;2022-12-07T08:14:25;30.42;;;18.25;;
35372;SDS011;21476;51.652;7.852;2022-12-07T08:16:52;34.63;;;20.40;;
35372;SDS011;21476;51.652;7.852;2022-12-07T08:19:18;29.42;;;19.65;;
35372;SDS011;21476;51.652;7.852;2022-12-07T08:21:43;29.52;;;17.05;;
35372;SDS011;21476;51.652;7.852;2022-12-07T08:24:09;31.98;;;18.45;;
35372;SDS011;21476;51.652;7.852;2022-12-07T08:26:35;33.67;;;17.98;;
35372;SDS011;21476;51.652;7.852;2022-12-07T08:29:00;25.77;;;15.80;;
35372;SDS011;21476;51.652;7.852;2022-12-07T08:31:26;24.00;;;14.35;;
35372;SDS011;21476;51.652;7.852;2022-12-07T08:33:52;25.38;;;15.30;;
35372;SDS011;21476;51.652;7.852;2022-12-07T08:36:18;22.70;;;14.77;;
35372;SDS011;21476;51.652;7.852;2022-12-07T08:38:44;20.20;;;13.40;;
35372;SDS011;21476;51.652;7.852;2022-12-07T08:41:10;19.67;;;12.23;;
35372;SDS011;21476;51.652;7.852;2022-12-07T08:43:36;17.45;;;11.95;;
35372;SDS011;21476;51.652;7.852;2022-12-07T08:48:50;19.55;;;10.40;;
35372;SDS011;21476;51.652;7.852;2022-12-07T08:51:20;19.73;;;10.40;;
35372;SDS011;21476;51.652;7.852;2022-12-07T08:53:47;14.18;;;9.25;;
35372;SDS011;21476;51.652;7.852;2022-12-07T08:56:14;14.82;;;8.60;;
35372;SDS011;21476;51.652;7.852;2022-12-07T08:58:40;15.80;;;8.48;;
35372;SDS011;21476;51.652;7.852;2022-12-07T09:01:06;18.38;;;9.70;;
35372;SDS011;21476;51.652;7.852;2022-12-07T09:03:32;17.95;;;9.90;;
35372;SDS011;21476;51.652;7.852;2022-12-07T09:05:58;16.30;;;8.85;;
35372;SDS011;21476;51.652;7.852;2022-12-07T09:08:26;14.32;;;8.85;;
35372;SDS011;21476;51.652;7.852;2022-12-07T09:10:55;22.45;;;9.18;;
35372;SDS011;21476;51.652;7.852;2022-12-07T09:13:21;23.92;;;10.13;;
35372;SDS011;21476;51.652;7.852;2022-12-07T09:15:46;17.65;;;9.25;;
35372;SDS011;21476;51.652;7.852;2022-12-07T09:18:12;21.08;;;9.52;;
35372;SDS011;21476;51.652;7.852;2022-12-07T09:20:37;16.55;;;7.95;;
35372;SDS011;21476;51.652;7.852;2022-12-07T09:23:05;18.48;;;10.27;;
35372;SDS011;21476;51.652;7.852;2022-12-07T09:25:31;16.73;;;7.43;;
35372;SDS011;21476;51.652;7.852;2022-12-07T09:27:58;14.77;;;6.97;;
35372;SDS011;21476;51.652;7.852;2022-12-07T09:30:24;12.30;;;7.60;;
35372;SDS011;21476;51.652;7.852;2022-12-07T09:32:52;13.13;;;6.03;;
35372;SDS011;21476;51.652;7.852;2022-12-07T09:35:18;13.48;;;6.13;;
35372;SDS011;21476;51.652;7.852;2022-12-07T09:37:44;10.15;;;5.70;;
35372;SDS011;21476;51.652;7.852;2022-12-07T09:40:10;12.02;;;6.57;;
35372;SDS011;21476;51.652;7.852;2022-12-07T09:42:39;11.38;;;5.82;;
35372;SDS011;21476;51.652;7.852;2022-12-07T09:45:11;13.20;;;6.15;;
35372;SDS011;21476;51.652;7.852;2022-12-07T09:47:44;9.43;;;5.15;;
35372;SDS011;21476;51.652;7.852;2022-12-07T09:50:14;13.32;;;5.47;;
35372;SDS011;21476;51.652;7.852;2022-12-07T09:52:43;12.65;;;5.47;;
35372;SDS011;21476;51.652;7.852;2022-12-07T09:55:14;12.15;;;5.63;;
35372;SDS011;21476;51.652;7.852;2022-12-07T09:57:44;9.85;;;5.22;;
35372;SDS011;21476;51.652;7.852;2022-12-07T10:00:14;9.82;;;5.03;;
35372;SDS011;21476;51.652;7.852;2022-12-07T10:02:43;11.32;;;5.80;;
35372;SDS011;21476;51.652;7.852;2022-12-07T10:05:36;15.23;;;6.15;;
35372;SDS011;21476;51.652;7.852;2022-12-07T10:08:00;10.30;;;5.05;;
35372;SDS011;21476;51.652;7.852;2022-12-07T10:10:29;13.20;;;5.95;;
35372;SDS011;21476;51.652;7.852;2022-12-07T10:18:32;15.20;;;7.25;;
35372;SDS011;21476;51.652;7.852;2022-12-07T10:21:13;23.27;;;8.18;;
35372;SDS011;21476;51.652;7.852;2022-12-07T10:27:10;14.18;;;6.63;;
35372;SDS011;21476;51.652;7.852;2022-12-07T10:32:01;12.50;;;6.50;;
35372;SDS011;21476;51.652;7.852;2022-12-07T10:34:34;14.88;;;6.95;;
35372;SDS011;21476;51.652;7.852;2022-12-07T10:37:14;14.25;;;7.25;;
35372;SDS011;21476;51.652;7.852;2022-12-07T10:39:44;12.80;;;7.47;;
35372;SDS011;21476;51.652;7.852;2022-12-07T10:45:09;12.43;;;7.32;;
35372;SDS011;21476;51.652;7.852;2022-12-07T10:58:55;10.68;;;5.20;;
35372;SDS011;21476;51.652;7.852;2022-12-07T11:01:41;13.50;;;5.90;;
35372;SDS011;21476;51.652;7.852;2022-12-07T11:09:52;11.68;;;5.60;;
35372;SDS011;21476;51.652;7.852;2022-12-07T11:12:37;10.38;;;5.60;;
35372;SDS011;21476;51.652;7.852;2022-12-07T11:20:53;11.60;;;5.38;;
35372;SDS011;21476;51.652;7.852;2022-12-07T11:36:54;10.60;;;4.70;;
35372;SDS011;21476;51.652;7.852;2022-12-07T11:41:48;13.60;;;6.00;;
35372;SDS011;21476;51.652;7.852;2022-12-07T11:50:08;9.43;;;3.65;;
35372;SDS011;21476;51.652;7.852;2022-12-07T11:52:47;10.02;;;4.25;;
35372;SDS011;21476;51.652;7.852;2022-12-07T12:03:40;9.70;;;3.28;;
35372;SDS011;21476;51.652;7.852;2022-12-07T12:06:26;7.93;;;3.10;;
35372;SDS011;21476;51.652;7.852;2022-12-07T12:08:54;15.20;;;4.07;;
35372;SDS011;21476;51.652;7.852;2022-12-07T12:12:01;11.50;;;3.83;;
35372;SDS011;21476;51.652;7.852;2022-12-07T12:14:58;8.88;;;2.80;;
35372;SDS011;21476;51.652;7.852;2022-12-07T12:20:25;9.67;;;3.27;;
35372;SDS011;21476;51.652;7.852;2022-12-07T12:25:50;12.68;;;4.22;;
35372;SDS011;21476;51.652;7.852;2022-12-07T12:31:14;18.42;;;5.85;;
35372;SDS011;21476;51.652;7.852;2022-12-07T12:38:47;13.65;;;4.28;;
35372;SDS011;21476;51.652;7.852;2022-12-07T12:44:08;12.90;;;4.20;;
35372;SDS011;21476;51.652;7.852;2022-12-07T12:51:50;13.50;;;4.32;;
35372;SDS011;21476;51.652;7.852;2022-12-07T13:00:21;12.00;;;3.28;;
35372;SDS011;21476;51.652;7.852;2022-12-07T13:02:52;11.35;;;3.40;;
35372;SDS011;21476;51.652;7.852;2022-12-07T13:05:23;8.77;;;3.47;;
35372;SDS011;21476;51.652;7.852;2022-12-07T13:20:56;11.48;;;4.18;;
35372;SDS011;21476;51.652;7.852;2022-12-07T13:31:45;9.85;;;3.92;;
35372;SDS011;21476;51.652;7.852;2022-12-07T13:36:55;11.10;;;3.60;;
35372;SDS011;21476;51.652;7.852;2022-12-07T13:39:22;10.98;;;3.67;;
35372;SDS011;21476;51.652;7.852;2022-12-07T13:41:54;10.07;;;3.72;;
35372;SDS011;21476;51.652;7.852;2022-12-07T13:44:22;8.07;;;3.63;;
35372;SDS011;21476;51.652;7.852;2022-12-07T13:49:38;13.55;;;3.78;;
35372;SDS011;21476;51.652;7.852;2022-12-07T13:52:19;8.82;;;3.50;;
35372;SDS011;21476;51.652;7.852;2022-12-07T13:57:31;10.27;;;3.75;;
35372;SDS011;21476;51.652;7.852;2022-12-07T13:59:59;9.93;;;3.70;;
35372;SDS011;21476;51.652;7.852;2022-12-07T14:02:29;13.35;;;3.85;;
35372;SDS011;21476;51.652;7.852;2022-12-07T14:05:07;10.90;;;4.50;;
35372;SDS011;21476;51.652;7.852;2022-12-07T14:07:56;13.82;;;4.03;;
35372;SDS011;21476;51.652;7.852;2022-12-07T14:10:30;11.55;;;3.90;;
35372;SDS011;21476;51.652;7.852;2022-12-07T14:13:00;13.90;;;4.22;;
35372;SDS011;21476;51.652;7.852;2022-12-07T14:15:31;17.10;;;6.70;;
35372;SDS011;21476;51.652;7.852;2022-12-07T14:18:02;13.45;;;4.85;;
35372;SDS011;21476;51.652;7.852;2022-12-07T14:21:34;12.68;;;5.18;;
35372;SDS011;21476;51.652;7.852;2022-12-07T14:26:52;10.88;;;4.55;;
35372;SDS011;21476;51.652;7.852;2022-12-07T14:32:20;15.57;;;5.53;;
35372;SDS011;21476;51.652;7.852;2022-12-07T14:35:23;14.13;;;5.18;;
35372;SDS011;21476;51.652;7.852;2022-12-07T14:38:04;12.55;;;5.68;;
35372;SDS011;21476;51.652;7.852;2022-12-07T14:47:55;11.77;;;5.57;;
35372;SDS011;21476;51.652;7.852;2022-12-07T14:54:04;13.85;;;5.53;;
35372;SDS011;21476;51.652;7.852;2022-12-07T14:57:08;13.07;;;5.30;;
35372;SDS011;21476;51.652;7.852;2022-12-07T14:59:51;14.88;;;5.57;;
35372;SDS011;21476;51.652;7.852;2022-12-07T15:03:07;13.02;;;4.82;;
35372;SDS011;21476;51.652;7.852;2022-12-07T15:19:47;15.65;;;4.47;;
35372;SDS011;21476;51.652;7.852;2022-12-07T15:22:12;13.95;;;4.38;;
35372;SDS011;21476;51.652;7.852;2022-12-07T15:24:38;9.40;;;4.03;;
35372;SDS011;21476;51.652;7.852;2022-12-07T15:27:03;9.60;;;3.53;;
35372;SDS011;21476;51.652;7.852;2022-12-07T15:29:29;8.77;;;3.78;;
35372;SDS011;21476;51.652;7.852;2022-12-07T15:31:55;7.38;;;2.90;;
35372;SDS011;21476;51.652;7.852;2022-12-07T15:34:21;12.45;;;3.88;;
35372;SDS011;21476;51.652;7.852;2022-12-07T15:36:48;9.73;;;3.83;;
35372;SDS011;21476;51.652;7.852;2022-12-07T15:39:13;9.32;;;3.10;;
35372;SDS011;21476;51.652;7.852;2022-12-07T15:41:39;9.27;;;3.33;;
35372;SDS011;21476;51.652;7.852;2022-12-07T15:44:05;13.65;;;3.70;;
35372;SDS011;21476;51.652;7.852;2022-12-07T15:46:49;10.75;;;3.60;;
35372;SDS011;21476;51.652;7.852;2022-12-07T15:49:15;13.30;;;4.03;;
35372;SDS011;21476;51.652;7.852;2022-12-07T15:51:42;18.92;;;5.07;;
35372;SDS011;21476;51.652;7.852;2022-12-07T15:54:19;12.77;;;4.28;;
35372;SDS011;21476;51.652;7.852;2022-12-07T15:56:46;15.38;;;5.68;;
35372;SDS011;21476;51.652;7.852;2022-12-07T15:59:12;14.85;;;5.70;;
35372;SDS011;21476;51.652;7.852;2022-12-07T16:01:38;20.67;;;9.40;;
35372;SDS011;21476;51.652;7.852;2022-12-07T16:04:04;31.10;;;15.63;;
35372;SDS011;21476;51.652;7.852;2022-12-07T16:06:30;19.92;;;11.20;;
35372;SDS011;21476;51.652;7.852;2022-12-07T16:08:55;16.15;;;8.73;;
35372;SDS011;21476;51.652;7.852;2022-12-07T16:11:21;22.52;;;11.73;;
35372;SDS011;21476;51.652;7.852;2022-12-07T16:13:47;25.13;;;9.88;;
35372;SDS011;21476;51.652;7.852;2022-12-07T16:16:14;19.83;;;9.52;;
35372;SDS011;21476;51.652;7.852;2022-12-07T16:18:42;14.05;;;6.95;;
35372;SDS011;21476;51.652;7.852;2022-12-07T16:21:08;18.80;;;7.65;;
35372;SDS011;21476;51.652;7.852;2022-12-07T16:23:34;16.27;;;7.00;;
35372;SDS011;21476;51.652;7.852;2022-12-07T16:26:03;12.48;;;6.00;;
35372;SDS011;21476;51.652;7.852;2022-12-07T16:28:33;18.00;;;6.93;;
35372;SDS011;21476;51.652;7.852;2022-12-07T16:31:00;14.75;;;5.47;;
35372;SDS011;21476;51.652;7.852;2022-12-07T16:33:31;14.55;;;5.47;;
35372;SDS011;21476;51.652;7.852;2022-12-07T16:35:58;15.10;;;6.28;;
35372;SDS011;21476;51.652;7.852;2022-12-07T16:38:24;11.00;;;6.35;;
35372;SDS011;21476;51.652;7.852;2022-12-07T16:40:50;15.20;;;7.35;;
35372;SDS011;21476;51.652;7.852;2022-12-07T16:43:16;13.18;;;6.63;;
35372;SDS011;21476;51.652;7.852;2022-12-07T16:45:42;18.10;;;7.50;;
35372;SDS011;21476;51.652;7.852;2022-12-07T16:48:07;12.93;;;6.70;;
35372;SDS011;21476;51.652;7.852;2022-12-07T16:50:33;19.88;;;8.02;;
35372;SDS011;21476;51.652;7.852;2022-12-07T16:52:58;24.20;;;11.55;;
35372;SDS011;21476;51.652;7.852;2022-12-07T16:55:24;17.30;;;10.10;;
35372;SDS011;21476;51.652;7.852;2022-12-07T16:57:50;14.63;;;7.28;;
35372;SDS011;21476;51.652;7.852;2022-12-07T17:00:15;23.58;;;12.43;;
35372;SDS011;21476;51.652;7.852;2022-12-07T17:02:41;13.98;;;8.93;;
35372;SDS011;21476;51.652;7.852;2022-12-07T17:05:07;17.63;;;8.77;;
35372;SDS011;21476;51.652;7.852;2022-12-07T17:07:33;14.93;;;8.10;;
35372;SDS011;21476;51.652;7.852;2022-12-07T17:09:59;16.33;;;9.80;;
35372;SDS011;21476;51.652;7.852;2022-12-07T17:12:24;16.52;;;7.45;;
35372;SDS011;21476;51.652;7.852;2022-12-07T17:14:50;11.43;;;7.50;;
35372;SDS011;21476;51.652;7.852;2022-12-07T17:17:35;13.13;;;6.82;;
35372;SDS011;21476;51.652;7.852;2022-12-07T17:20:00;23.42;;;9.10;;
35372;SDS011;21476;51.652;7.852;2022-12-07T17:22:26;20.88;;;7.80;;
35372;SDS011;21476;51.652;7.852;2022-12-07T17:24:51;19.77;;;8.25;;
35372;SDS011;21476;51.652;7.852;2022-12-07T17:27:17;15.90;;;9.35;;
35372;SDS011;21476;51.652;7.852;2022-12-07T17:29:43;24.75;;;11.27;;
35372;SDS011;21476;51.652;7.852;2022-12-07T17:32:09;13.70;;;8.45;;
35372;SDS011;21476;51.652;7.852;2022-12-07T17:34:34;16.80;;;9.77;;
35372;SDS011;21476;51.652;7.852;2022-12-07T17:37:01;21.75;;;10.27;;
35372;SDS011;21476;51.652;7.852;2022-12-07T17:39:28;26.48;;;15.23;;
35372;SDS011;21476;51.652;7.852;2022-12-07T17:41:54;23.67;;;13.80;;
35372;SDS011;21476;51.652;7.852;2022-12-07T17:44:38;24.70;;;12.90;;
35372;SDS011;21476;51.652;7.852;2022-12-07T17:47:04;22.08;;;13.43;;
35372;SDS011;21476;51.652;7.852;2022-12-07T17:49:31;18.08;;;11.82;;
35372;SDS011;21476;51.652;7.852;2022-12-07T17:51:56;30.73;;;16.38;;
35372;SDS011;21476;51.652;7.852;2022-12-07T17:54:40;34.17;;;18.20;;
35372;SDS011;21476;51.652;7.852;2022-12-07T17:57:07;24.55;;;13.40;;
35372;SDS011;21476;51.652;7.852;2022-12-07T17:59:32;23.02;;;13.00;;
35372;SDS011;21476;51.652;7.852;2022-12-07T18:01:58;22.80;;;12.68;;